createdAt,value
2017-05-08T00:00:48.648Z,38.71
2017-05-08T00:01:48.710Z,38.71
2017-05-08T00:02:48.665Z,38.51
2017-05-08T00:03:48.668Z,38.71
2017-05-08T00:04:48.671Z,38.79
2017-05-08T00:05:48.680Z,38.71
2017-05-08T00:06:48.685Z,38.7
2017-05-08T00:07:48.694Z,38.62
2017-05-08T00:08:48.696Z,38.53
2017-05-08T00:09:48.703Z,38.71
2017-05-08T00:10:48.397Z,38.43
2017-05-08T00:11:48.713Z,38.6
2017-05-08T00:12:48.724Z,38.53
2017-05-08T00:13:48.730Z,38.43
2017-05-08T00:14:48.732Z,38.41
2017-05-08T00:15:48.435Z,38.41
2017-05-08T00:16:48.796Z,38.53
2017-05-08T00:17:48.802Z,38.51
2017-05-08T00:18:48.446Z,38.33
2017-05-08T00:19:48.763Z,38.41
2017-05-08T00:20:48.821Z,38.33
2017-05-08T00:21:48.826Z,38.31
2017-05-08T00:22:48.781Z,38.31
2017-05-08T00:23:48.789Z,38.12
2017-05-08T00:24:48.795Z,38.43
2017-05-08T00:25:48.799Z,38.04
2017-05-08T00:26:48.806Z,38.14
2017-05-08T00:27:48.814Z,38.04
2017-05-08T00:28:48.818Z,38.02
2017-05-08T00:29:48.823Z,37.95
2017-05-08T00:30:48.830Z,38.31
2017-05-08T00:31:48.834Z,38.31
2017-05-08T00:32:48.892Z,38.14
2017-05-08T00:33:48.849Z,38.23
2017-05-08T00:34:48.852Z,38.31
2017-05-08T00:35:48.859Z,38.33
2017-05-08T00:36:48.871Z,37.85
2017-05-08T00:37:48.908Z,38.31
2017-05-08T00:38:48.877Z,38.33
2017-05-08T00:39:48.884Z,38.02
2017-05-08T00:40:48.892Z,37.75
2017-05-08T00:41:48.590Z,38.23
2017-05-08T00:42:48.595Z,38.31
2017-05-08T00:43:48.910Z,38.41
2017-05-08T00:44:48.916Z,38.21
2017-05-08T00:45:48.920Z,38.14
2017-05-08T00:46:48.931Z,38.14
2017-05-08T00:47:49.327Z,38.23
2017-05-08T00:48:48.937Z,38.33
2017-05-08T00:49:48.949Z,38.23
2017-05-08T00:50:49.001Z,38.23
2017-05-08T00:51:48.957Z,38.33
2017-05-08T00:52:49.014Z,38.23
2017-05-08T00:53:48.712Z,38.23
2017-05-08T00:54:48.979Z,38.23
2017-05-08T00:55:48.983Z,37.85
2017-05-08T00:56:48.989Z,38.14
2017-05-08T00:57:49.043Z,38.23
2017-05-08T00:58:49.005Z,38.12
2017-05-08T00:59:49.011Z,38.12
2017-05-08T01:00:49.013Z,38.21
2017-05-08T01:01:49.016Z,38.14
2017-05-08T01:02:49.074Z,38.04
2017-05-08T01:03:49.030Z,38.04
2017-05-08T01:04:48.776Z,37.93
2017-05-08T01:05:49.045Z,38.14
2017-05-08T01:06:48.740Z,37.95
2017-05-08T01:07:49.059Z,38.02
2017-05-08T01:08:49.060Z,38.21
2017-05-08T01:09:49.068Z,38.04
2017-05-08T01:10:48.762Z,38.02
2017-05-08T01:11:49.081Z,38.04
2017-05-08T01:12:49.091Z,38.04
2017-05-08T01:13:49.127Z,38.12
2017-05-08T01:14:48.787Z,38.04
2017-05-08T01:15:49.107Z,37.95
2017-05-08T01:16:49.110Z,37.95
2017-05-08T01:17:48.806Z,37.95
2017-05-08T01:18:49.124Z,37.95
2017-05-08T01:19:49.131Z,37.83
2017-05-08T01:20:49.134Z,37.95
2017-05-08T01:21:49.200Z,38.02
2017-05-08T01:22:48.837Z,37.85
2017-05-08T01:23:48.846Z,37.95
2017-05-08T01:24:48.850Z,37.85
2017-05-08T01:25:49.167Z,37.73
2017-05-08T01:26:49.172Z,37.75
2017-05-08T01:27:49.180Z,37.63
2017-05-08T01:28:49.184Z,37.75
2017-05-08T01:29:49.190Z,37.95
2017-05-08T01:30:49.196Z,38.04
2017-05-08T01:31:49.254Z,37.75
2017-05-08T01:32:49.208Z,37.95
2017-05-08T01:33:49.218Z,37.85
2017-05-08T01:34:49.223Z,37.95
2017-05-08T01:35:49.326Z,37.85
2017-05-08T01:36:48.922Z,37.75
2017-05-08T01:37:49.243Z,37.56
2017-05-08T01:38:49.245Z,37.65
2017-05-08T01:39:49.249Z,37.95
2017-05-08T01:40:49.256Z,37.95
2017-05-08T01:41:48.951Z,37.95
2017-05-08T01:42:49.331Z,37.54
2017-05-08T01:43:49.278Z,37.85
2017-05-08T01:44:49.281Z,37.46
2017-05-08T01:45:49.287Z,37.95
2017-05-08T01:46:48.983Z,37.95
2017-05-08T01:47:49.301Z,37.35
2017-05-08T01:48:49.312Z,37.93
2017-05-08T01:49:49.311Z,37.83
2017-05-08T01:50:49.417Z,37.75
2017-05-08T01:51:49.323Z,37.85
2017-05-08T01:52:49.380Z,37.75
2017-05-08T01:53:49.336Z,37.85
2017-05-08T01:54:49.343Z,37.75
2017-05-08T01:55:49.349Z,37.73
2017-05-08T01:56:49.358Z,37.85
2017-05-08T01:57:49.361Z,37.63
2017-05-08T01:58:49.369Z,37.73
2017-05-08T01:59:49.063Z,37.83
2017-05-08T02:00:49.477Z,37.75
2017-05-08T02:01:49.433Z,37.75
2017-05-08T02:02:49.079Z,37.65
2017-05-08T02:03:49.087Z,37.73
2017-05-08T02:04:49.093Z,37.83
2017-05-08T02:05:49.407Z,37.73
2017-05-08T02:06:49.413Z,37.85
2017-05-08T02:07:49.422Z,37.75
2017-05-08T02:08:49.117Z,37.65
2017-05-08T02:09:49.122Z,37.65
2017-05-08T02:10:49.439Z,37.73
2017-05-08T02:11:49.496Z,37.73
2017-05-08T02:12:49.451Z,37.83
2017-05-08T02:13:49.457Z,37.75
2017-05-08T02:14:49.464Z,37.75
2017-05-08T02:15:49.469Z,37.75
2017-05-08T02:16:49.480Z,37.75
2017-05-08T02:17:49.487Z,37.65
2017-05-08T02:18:49.490Z,37.46
2017-05-08T02:19:49.545Z,37.54
2017-05-08T02:20:49.501Z,37.46
2017-05-08T02:21:49.508Z,37.46
2017-05-08T02:22:49.517Z,37.46
2017-05-08T02:23:49.521Z,37.56
2017-05-08T02:24:49.526Z,37.75
2017-05-08T02:25:49.533Z,37.46
2017-05-08T02:26:49.226Z,37.65
2017-05-08T02:27:49.597Z,37.73
2017-05-08T02:28:49.554Z,37.75
2017-05-08T02:29:49.247Z,37.56
2017-05-08T02:30:49.567Z,37.54
2017-05-08T02:31:49.573Z,37.56
2017-05-08T02:32:49.575Z,37.54
2017-05-08T02:33:49.585Z,37.63
2017-05-08T02:34:49.326Z,37.63
2017-05-08T02:35:49.642Z,37.56
2017-05-08T02:36:49.600Z,37.54
2017-05-08T02:37:49.296Z,37.73
2017-05-08T02:38:49.612Z,37.65
2017-05-08T02:39:49.621Z,37.37
2017-05-08T02:40:49.623Z,37.54
2017-05-08T02:41:49.629Z,37.56
2017-05-08T02:42:49.636Z,37.46
2017-05-08T02:43:49.644Z,37.54
2017-05-08T02:44:49.700Z,37.46
2017-05-08T02:45:49.655Z,37.54
2017-05-08T02:46:49.663Z,37.46
2017-05-08T02:47:49.719Z,37.46
2017-05-08T02:48:49.680Z,37.25
2017-05-08T02:49:49.419Z,36.98
2017-05-08T02:50:49.376Z,37.25
2017-05-08T02:51:49.692Z,37.06
2017-05-08T02:52:50.003Z,37.35
2017-05-08T02:53:49.706Z,37.75
2017-05-08T02:54:49.400Z,37.75
2017-05-08T02:55:49.405Z,37.35
2017-05-08T02:56:49.723Z,37.08
2017-05-08T02:57:49.730Z,37.08
2017-05-08T02:58:49.734Z,37.17
2017-05-08T02:59:49.742Z,36.98
2017-05-08T03:00:49.747Z,36.96
2017-05-08T03:01:49.755Z,37.35
2017-05-08T03:02:49.762Z,37.37
2017-05-08T03:03:49.766Z,37.37
2017-05-08T03:04:49.769Z,37.35
2017-05-08T03:05:49.777Z,37.27
2017-05-08T03:06:49.781Z,37.17
2017-05-08T03:07:49.790Z,37.27
2017-05-08T03:08:49.800Z,37.37
2017-05-08T03:09:49.799Z,37.17
2017-05-08T03:10:49.860Z,37.06
2017-05-08T03:11:49.863Z,37.17
2017-05-08T03:12:49.822Z,37.17
2017-05-08T03:13:49.833Z,37.35
2017-05-08T03:14:49.836Z,37.25
2017-05-08T03:15:49.839Z,37.45
2017-05-08T03:16:49.847Z,37.08
2017-05-08T03:17:49.901Z,37.25
2017-05-08T03:18:49.859Z,37.46
2017-05-08T03:19:49.865Z,37.17
2017-05-08T03:20:49.920Z,37.08
2017-05-08T03:21:49.880Z,37.08
2017-05-08T03:22:49.884Z,37.25
2017-05-08T03:23:49.900Z,37.35
2017-05-08T03:24:49.892Z,37.25
2017-05-08T03:25:49.898Z,37.15
2017-05-08T03:26:49.594Z,37.17
2017-05-08T03:27:49.913Z,37.46
2017-05-08T03:28:49.917Z,37.35
2017-05-08T03:29:49.617Z,37.27
2017-05-08T03:30:49.930Z,37.27
2017-05-08T03:31:49.935Z,37.27
2017-05-08T03:32:49.942Z,37.37
2017-05-08T03:33:49.949Z,37.35
2017-05-08T03:34:49.956Z,37.46
2017-05-08T03:35:49.963Z,37.15
2017-05-08T03:36:49.658Z,37.27
2017-05-08T03:37:49.973Z,37.35
2017-05-08T03:38:49.670Z,37.37
2017-05-08T03:39:49.674Z,37.35
2017-05-08T03:40:49.733Z,37.17
2017-05-08T03:41:49.999Z,37.27
2017-05-08T03:42:50.102Z,37.25
2017-05-08T03:43:50.010Z,37.25
2017-05-08T03:44:50.018Z,37.25
2017-05-08T03:45:50.026Z,37.15
2017-05-08T03:46:50.032Z,37.15
2017-05-08T03:47:50.034Z,37.06
2017-05-08T03:48:50.042Z,37.17
2017-05-08T03:49:50.048Z,37.17
2017-05-08T03:50:50.052Z,37.25
2017-05-08T03:51:50.061Z,37.27
2017-05-08T03:52:50.066Z,37.17
2017-05-08T03:53:50.068Z,37.06
2017-05-08T03:54:50.077Z,37.08
2017-05-08T03:55:50.084Z,37.17
2017-05-08T03:56:50.088Z,37.08
2017-05-08T03:57:50.098Z,37.25
2017-05-08T03:58:49.791Z,37.35
2017-05-08T03:59:50.109Z,37.06
2017-05-08T04:00:50.114Z,37.37
2017-05-08T04:01:50.121Z,37.27
2017-05-08T04:02:50.125Z,37.37
2017-05-08T04:03:50.133Z,37.35
2017-05-08T04:04:50.140Z,37.08
2017-05-08T04:05:50.143Z,37.08
2017-05-08T04:06:50.150Z,36.77
2017-05-08T04:07:50.156Z,36.87
2017-05-08T04:08:50.163Z,36.96
2017-05-08T04:09:50.171Z,37.06
2017-05-08T04:10:50.173Z,37.08
2017-05-08T04:11:50.177Z,37.06
2017-05-08T04:12:50.186Z,37.08
2017-05-08T04:13:49.883Z,37.08
2017-05-08T04:14:50.198Z,37.17
2017-05-08T04:15:50.204Z,37.35
2017-05-08T04:16:49.901Z,37.15
2017-05-08T04:17:50.219Z,37.17
2017-05-08T04:18:50.243Z,36.87
2017-05-08T04:19:50.282Z,36.96
2017-05-08T04:20:50.285Z,36.77
2017-05-08T04:21:50.241Z,36.98
2017-05-08T04:22:50.249Z,36.67
2017-05-08T04:23:50.258Z,37.06
2017-05-08T04:24:50.258Z,37.15
2017-05-08T04:25:50.567Z,37.08
2017-05-08T04:26:50.271Z,36.79
2017-05-08T04:27:50.282Z,36.98
2017-05-08T04:28:50.287Z,36.77
2017-05-08T04:29:50.291Z,36.98
2017-05-08T04:30:50.295Z,36.88
2017-05-08T04:31:50.310Z,36.98
2017-05-08T04:32:50.314Z,36.88
2017-05-08T04:33:50.316Z,36.88
2017-05-08T04:34:50.323Z,36.69
2017-05-08T04:35:50.326Z,36.79
2017-05-08T04:36:50.336Z,36.98
2017-05-08T04:37:50.339Z,36.98
2017-05-08T04:38:50.040Z,36.98
2017-05-08T04:39:50.403Z,36.67
2017-05-08T04:40:50.051Z,36.69
2017-05-08T04:41:50.363Z,36.88
2017-05-08T04:42:50.372Z,36.98
2017-05-08T04:43:50.426Z,36.96
2017-05-08T04:44:50.380Z,36.77
2017-05-08T04:45:50.386Z,36.79
2017-05-08T04:46:50.394Z,36.98
2017-05-08T04:47:50.139Z,36.88
2017-05-08T04:48:50.458Z,36.88
2017-05-08T04:49:50.462Z,36.88
2017-05-08T04:50:50.109Z,36.79
2017-05-08T04:51:50.165Z,36.87
2017-05-08T04:52:50.433Z,36.87
2017-05-08T04:53:50.438Z,36.77
2017-05-08T04:54:50.443Z,36.88
2017-05-08T04:55:50.449Z,36.79
2017-05-08T04:56:50.143Z,36.77
2017-05-08T04:57:50.465Z,36.59
2017-05-08T04:58:50.209Z,36.79
2017-05-08T04:59:50.478Z,36.79
2017-05-08T05:00:50.481Z,36.79
2017-05-08T05:01:50.483Z,36.77
2017-05-08T05:02:50.547Z,36.88
2017-05-08T05:03:50.547Z,36.79
2017-05-08T05:04:50.503Z,36.79
2017-05-08T05:05:50.511Z,36.5
2017-05-08T05:06:50.520Z,36.69
2017-05-08T05:07:50.526Z,36.4
2017-05-08T05:08:50.530Z,36.69
2017-05-08T05:09:50.588Z,36.59
2017-05-08T05:10:50.279Z,36.69
2017-05-08T05:11:50.548Z,36.4
2017-05-08T05:12:50.560Z,36.5
2017-05-08T05:13:50.249Z,36.3
2017-05-08T05:14:50.564Z,36.5
2017-05-08T05:15:50.573Z,36.4
2017-05-08T05:16:50.267Z,36.4
2017-05-08T05:17:50.585Z,36.4
2017-05-08T05:18:50.280Z,36.4
2017-05-08T05:19:50.597Z,36.5
2017-05-08T05:20:50.601Z,36.4
2017-05-08T05:21:50.608Z,36.3
2017-05-08T05:22:50.617Z,36.4
2017-05-08T05:23:50.625Z,36.4
2017-05-08T05:24:50.626Z,36.4
2017-05-08T05:25:50.635Z,36.4
2017-05-08T05:26:50.690Z,36.5
2017-05-08T05:27:50.647Z,36.4
2017-05-08T05:28:50.703Z,36.4
2017-05-08T05:29:50.658Z,36.5
2017-05-08T05:30:50.678Z,36.4
2017-05-08T05:31:50.671Z,36.4
2017-05-08T05:32:50.732Z,36.21
2017-05-08T05:33:50.683Z,36.4
2017-05-08T05:34:50.691Z,36.21
2017-05-08T05:35:50.697Z,36.4
2017-05-08T05:36:50.751Z,36.3
2017-05-08T05:37:50.397Z,36.3
2017-05-08T05:38:50.713Z,36.5
2017-05-08T05:39:50.769Z,36.3
2017-05-08T05:40:50.725Z,36.4
2017-05-08T05:41:50.733Z,36.4
2017-05-08T05:42:50.740Z,36.3
2017-05-08T05:43:50.794Z,35.92
2017-05-08T05:44:50.800Z,35.92
2017-05-08T05:45:50.754Z,35.82
2017-05-08T05:46:50.759Z,35.72
2017-05-08T05:47:50.821Z,35.64
2017-05-08T05:48:50.775Z,35.72
2017-05-08T05:49:50.471Z,35.53
2017-05-08T05:50:50.837Z,35.72
2017-05-08T05:51:50.794Z,35.64
2017-05-08T05:52:50.798Z,36.11
2017-05-08T05:53:50.855Z,35.72
2017-05-08T05:54:50.503Z,36.11
2017-05-08T05:55:50.820Z,36.11
2017-05-08T05:56:50.826Z,36.21
2017-05-08T05:57:50.829Z,36.3
2017-05-08T05:58:50.840Z,35.55
2017-05-08T05:59:50.843Z,36.32
2017-05-08T06:00:50.847Z,36.32
2017-05-08T06:01:50.853Z,35.55
2017-05-08T06:02:50.862Z,36.42
2017-05-08T06:03:50.866Z,35.74
2017-05-08T06:04:50.873Z,35.74
2017-05-08T06:05:50.881Z,35.94
2017-05-08T06:06:50.573Z,35.84
2017-05-08T06:07:50.581Z,35.64
2017-05-08T06:08:50.897Z,35.74
2017-05-08T06:09:50.902Z,35.55
2017-05-08T06:10:50.905Z,35.55
2017-05-08T06:11:50.916Z,35.55
2017-05-08T06:12:50.920Z,35.45
2017-05-08T06:13:50.927Z,35.55
2017-05-08T06:14:50.932Z,35.64
2017-05-08T06:15:50.942Z,35.45
2017-05-08T06:16:50.943Z,35.45
2017-05-08T06:17:50.950Z,35.64
2017-05-08T06:18:51.009Z,35.45
2017-05-08T06:19:50.962Z,35.55
2017-05-08T06:20:50.656Z,35.55
2017-05-08T06:21:51.024Z,35.55
2017-05-08T06:22:50.982Z,35.45
2017-05-08T06:23:50.677Z,35.36
2017-05-08T06:24:50.994Z,35.74
2017-05-08T06:25:50.999Z,35.45
2017-05-08T06:26:51.007Z,35.74
2017-05-08T06:27:51.010Z,35.55
2017-05-08T06:28:51.017Z,35.64
2017-05-08T06:29:51.024Z,35.26
2017-05-08T06:30:50.718Z,35.45
2017-05-08T06:31:51.055Z,35.45
2017-05-08T06:32:51.102Z,35.55
2017-05-08T06:33:50.786Z,35.45
2017-05-08T06:34:51.102Z,35.55
2017-05-08T06:35:51.059Z,35.64
2017-05-08T06:36:51.067Z,35.36
2017-05-08T06:37:51.121Z,35.45
2017-05-08T06:38:51.132Z,35.55
2017-05-08T06:39:51.084Z,35.55
2017-05-08T06:40:51.139Z,35.36
2017-05-08T06:41:50.786Z,35.45
2017-05-08T06:42:51.104Z,35.45
2017-05-08T06:43:51.159Z,35.36
2017-05-08T06:44:51.114Z,35.55
2017-05-08T06:45:51.125Z,35.45
2017-05-08T06:46:51.127Z,35.36
2017-05-08T06:47:50.873Z,35.45
2017-05-08T06:48:51.139Z,35.45
2017-05-08T06:49:51.146Z,35.55
2017-05-08T06:50:51.152Z,35.36
2017-05-08T06:51:51.208Z,35.45
2017-05-08T06:52:51.161Z,35.55
2017-05-08T06:53:51.167Z,35.45
2017-05-08T06:54:51.174Z,35.55
2017-05-08T06:55:51.182Z,35.36
2017-05-08T06:56:51.188Z,35.55
2017-05-08T06:57:51.193Z,35.45
2017-05-08T06:58:51.253Z,35.74
2017-05-08T06:59:51.206Z,35.84
2017-05-08T07:00:51.216Z,35.74
2017-05-08T07:01:51.219Z,36.3
2017-05-08T07:02:51.231Z,35.53
2017-05-08T07:03:51.234Z,36.3
2017-05-08T07:04:51.236Z,36.11
2017-05-08T07:05:51.244Z,35.44
2017-05-08T07:06:51.303Z,36.3
2017-05-08T07:07:51.257Z,36.3
2017-05-08T07:08:50.952Z,36.11
2017-05-08T07:09:51.271Z,36.01
2017-05-08T07:10:51.324Z,36.01
2017-05-08T07:11:51.334Z,36.21
2017-05-08T07:12:51.289Z,35.63
2017-05-08T07:13:51.293Z,36.01
2017-05-08T07:14:51.304Z,35.84
2017-05-08T07:15:51.362Z,36.13
2017-05-08T07:16:51.313Z,35.84
2017-05-08T07:17:51.319Z,36.03
2017-05-08T07:18:51.011Z,36.13
2017-05-08T07:19:51.334Z,36.13
2017-05-08T07:20:51.340Z,35.74
2017-05-08T07:21:51.344Z,36.22
2017-05-08T07:22:51.348Z,36.32
2017-05-08T07:23:51.359Z,35.64
2017-05-08T07:24:51.412Z,36.22
2017-05-08T07:25:51.370Z,36.22
2017-05-08T07:26:51.433Z,36.22
2017-05-08T07:27:51.382Z,36.03
2017-05-08T07:28:51.078Z,35.36
2017-05-08T07:29:51.394Z,35.16
2017-05-08T07:30:51.401Z,35.08
2017-05-08T07:31:51.097Z,34.89
2017-05-08T07:32:51.411Z,34.6
2017-05-08T07:33:51.420Z,34.6
2017-05-08T07:34:51.426Z,34.04
2017-05-08T07:35:51.431Z,33.84
2017-05-08T07:36:51.442Z,33.94
2017-05-08T07:37:51.132Z,33.37
2017-05-08T07:38:51.451Z,33.67
2017-05-08T07:39:51.146Z,32.99
2017-05-08T07:40:51.153Z,32.91
2017-05-08T07:41:51.466Z,32.91
2017-05-08T07:42:51.476Z,32.33
2017-05-08T07:43:51.483Z,32.14
2017-05-08T07:44:51.488Z,31.86
2017-05-08T07:45:51.528Z,31.76
2017-05-08T07:46:51.503Z,31.67
2017-05-08T07:47:51.510Z,31.67
2017-05-08T07:48:51.519Z,31.76
2017-05-08T07:49:51.520Z,31.57
2017-05-08T07:50:51.562Z,31.57
2017-05-08T07:51:51.534Z,31.39
2017-05-08T07:52:51.540Z,31.29
2017-05-08T07:53:51.547Z,31.39
2017-05-08T07:54:51.554Z,31.49
2017-05-08T07:55:51.561Z,31.39
2017-05-08T07:56:51.617Z,31.29
2017-05-08T07:57:51.574Z,31.01
2017-05-08T07:58:51.580Z,31.31
2017-05-08T07:59:51.586Z,31.21
2017-05-08T08:00:51.593Z,31.02
2017-05-08T08:01:51.600Z,30.92
2017-05-08T08:02:51.606Z,30.92
2017-05-08T08:03:51.663Z,30.92
2017-05-08T08:04:51.620Z,30.34
2017-05-08T08:05:51.628Z,30.73
2017-05-08T08:06:51.633Z,30.44
2017-05-08T08:07:51.644Z,30.63
2017-05-08T08:08:51.648Z,30.63
2017-05-08T08:09:51.700Z,30.92
2017-05-08T08:10:51.660Z,30.54
2017-05-08T08:11:51.667Z,30.15
2017-05-08T08:12:51.675Z,30.24
2017-05-08T08:13:51.678Z,30.35
2017-05-08T08:14:51.699Z,30.16
2017-05-08T08:15:51.695Z,30.16
2017-05-08T08:16:51.701Z,30.16
2017-05-08T08:17:51.714Z,30.24
2017-05-08T08:18:51.716Z,30.34
2017-05-08T08:19:51.723Z,30.34
2017-05-08T08:20:51.464Z,30.45
2017-05-08T08:21:51.737Z,30.07
2017-05-08T08:22:51.746Z,29.97
2017-05-08T08:23:51.753Z,29.87
2017-05-08T08:24:51.760Z,30.16
2017-05-08T08:25:51.820Z,30.26
2017-05-08T08:26:51.464Z,30.15
2017-05-08T08:27:51.781Z,30.16
2017-05-08T08:28:51.787Z,29.87
2017-05-08T08:29:51.847Z,30.16
2017-05-08T08:30:51.496Z,30.45
2017-05-08T08:31:51.811Z,30.07
2017-05-08T08:32:51.821Z,30.24
2017-05-08T08:33:51.517Z,30.15
2017-05-08T08:34:51.837Z,30.16
2017-05-08T08:35:51.840Z,29.97
2017-05-08T08:36:51.850Z,30.05
2017-05-08T08:37:51.599Z,30.07
2017-05-08T08:38:51.551Z,30.34
2017-05-08T08:39:51.868Z,30.44
2017-05-08T08:40:51.878Z,30.15
2017-05-08T08:41:51.883Z,29.95
2017-05-08T08:42:51.892Z,30.35
2017-05-08T08:43:51.898Z,30.45
2017-05-08T08:44:51.958Z,30.16
2017-05-08T08:45:51.910Z,30.16
2017-05-08T08:46:51.610Z,30.24
2017-05-08T08:47:51.619Z,30.24
2017-05-08T08:48:51.937Z,30.44
2017-05-08T08:49:51.942Z,29.97
2017-05-08T08:50:51.950Z,29.97
2017-05-08T08:51:51.961Z,30.16
2017-05-08T08:52:51.655Z,30.24
2017-05-08T08:53:52.025Z,30.44
2017-05-08T08:54:51.979Z,30.15
2017-05-08T08:55:51.989Z,29.97
2017-05-08T08:56:51.685Z,30.16
2017-05-08T08:57:51.687Z,29.95
2017-05-08T08:58:51.699Z,30.07
2017-05-08T08:59:52.066Z,30.15
2017-05-08T09:00:52.023Z,30.24
2017-05-08T09:01:52.031Z,30.62
2017-05-08T09:02:52.115Z,30.71
2017-05-08T09:03:52.049Z,31.01
2017-05-08T09:04:51.742Z,30.71
2017-05-08T09:05:52.056Z,30.91
2017-05-08T09:06:52.066Z,30.52
2017-05-08T09:07:52.120Z,30.62
2017-05-08T09:08:52.078Z,30.62
2017-05-08T09:09:52.085Z,30.52
2017-05-08T09:10:52.091Z,30.23
2017-05-08T09:11:52.106Z,30.21
2017-05-08T09:12:52.111Z,30.23
2017-05-08T09:13:52.164Z,30.41
2017-05-08T09:14:52.120Z,30.11
2017-05-08T09:15:52.126Z,30.21
2017-05-08T09:16:52.131Z,30.21
2017-05-08T09:17:52.139Z,30.41
2017-05-08T09:18:52.148Z,30.21
2017-05-08T09:19:52.166Z,30.23
2017-05-08T09:20:52.164Z,29.92
2017-05-08T09:21:52.166Z,30.21
2017-05-08T09:22:52.169Z,30.31
2017-05-08T09:23:52.182Z,29.94
2017-05-08T09:24:51.877Z,30.23
2017-05-08T09:25:52.226Z,29.94
2017-05-08T09:26:52.253Z,30.31
2017-05-08T09:27:52.208Z,30.23
2017-05-08T09:28:52.218Z,29.46
2017-05-08T09:29:52.225Z,29.84
2017-05-08T09:30:52.232Z,30.23
2017-05-08T09:31:51.923Z,29.74
2017-05-08T09:32:52.242Z,29.74
2017-05-08T09:33:52.038Z,29.36
2017-05-08T09:34:52.255Z,29.16
2017-05-08T09:35:52.263Z,29.17
2017-05-08T09:36:52.010Z,29.17
2017-05-08T09:37:52.280Z,29.27
2017-05-08T09:38:52.282Z,28.89
2017-05-08T09:39:52.028Z,28.69
2017-05-08T09:40:51.984Z,28.89
2017-05-08T09:41:52.302Z,29.08
2017-05-08T09:42:51.999Z,28.69
2017-05-08T09:43:52.318Z,28.89
2017-05-08T09:44:52.013Z,28.5
2017-05-08T09:45:52.329Z,28.51
2017-05-08T09:46:52.025Z,28.79
2017-05-08T09:47:52.033Z,28.22
2017-05-08T09:48:52.353Z,28.03
2017-05-08T09:49:52.346Z,28.03
2017-05-08T09:50:52.053Z,28.03
2017-05-08T09:51:52.061Z,28.13
2017-05-08T09:52:52.431Z,28.13
2017-05-08T09:53:52.443Z,28.9
2017-05-08T09:54:52.395Z,29.17
2017-05-08T09:55:52.089Z,29.27
2017-05-08T09:56:52.405Z,29.17
2017-05-08T09:57:52.415Z,29.66
2017-05-08T09:58:52.471Z,29.46
2017-05-08T09:59:52.124Z,29.94
2017-05-08T10:00:52.174Z,30.23
2017-05-08T10:01:52.448Z,30.23
2017-05-08T10:02:52.454Z,30.13
2017-05-08T10:03:52.145Z,30.11
2017-05-08T10:04:52.523Z,30.31
2017-05-08T10:05:52.523Z,30.32
2017-05-08T10:06:52.478Z,29.84
2017-05-08T10:07:52.486Z,29.83
2017-05-08T10:08:52.492Z,30.21
2017-05-08T10:09:52.190Z,30.11
2017-05-08T10:10:52.555Z,30.02
2017-05-08T10:11:52.516Z,30.02
2017-05-08T10:12:52.520Z,30.21
2017-05-08T10:13:52.526Z,30.11
2017-05-08T10:14:52.533Z,30.23
2017-05-08T10:15:52.550Z,29.74
2017-05-08T10:17:52.556Z,29.08
2017-05-08T10:18:52.251Z,29.27
2017-05-08T10:19:52.572Z,29.17
2017-05-08T10:20:52.576Z,28.98
2017-05-08T10:21:52.580Z,28.98
2017-05-08T10:22:52.638Z,28.89
2017-05-08T10:23:52.597Z,28.7
2017-05-08T10:24:52.603Z,28.8
2017-05-08T10:25:52.611Z,28.51
2017-05-08T10:26:52.618Z,28.7
2017-05-08T10:27:52.632Z,28.7
2017-05-08T10:28:52.683Z,28.9
2017-05-08T10:29:52.329Z,28.8
2017-05-08T10:30:52.647Z,27.93
2017-05-08T10:31:52.653Z,28.41
2017-05-08T10:32:52.660Z,28.61
2017-05-08T10:33:52.673Z,28.41
2017-05-08T10:34:52.678Z,28.9
2017-05-08T10:35:52.373Z,28.98
2017-05-08T10:36:52.690Z,29.37
2017-05-08T10:37:52.698Z,29.17
2017-05-08T10:38:52.704Z,29.27
2017-05-08T10:39:52.714Z,29.08
2017-05-08T10:40:52.410Z,29.08
2017-05-08T10:41:52.728Z,29.57
2017-05-08T10:42:52.735Z,29.47
2017-05-08T10:43:52.431Z,29.47
2017-05-08T10:44:52.797Z,29.57
2017-05-08T10:45:52.879Z,29.66
2017-05-08T10:46:52.503Z,29.85
2017-05-08T10:47:52.769Z,29.48
2017-05-08T10:48:52.777Z,29.48
2017-05-08T10:49:52.784Z,29.48
2017-05-08T10:50:52.844Z,29.58
2017-05-08T10:51:52.798Z,29.38
2017-05-08T10:52:52.808Z,29.58
2017-05-08T10:53:52.814Z,29.28
2017-05-08T10:54:52.820Z,29.1
2017-05-08T10:55:52.519Z,28.91
2017-05-08T10:56:52.837Z,29.3
2017-05-08T10:57:52.841Z,29.11
2017-05-08T10:58:52.849Z,29.48
2017-05-08T10:59:52.546Z,29.69
2017-05-08T11:00:52.866Z,29.5
2017-05-08T11:01:52.922Z,29.88
2017-05-08T11:02:52.621Z,29.68
2017-05-08T11:03:52.885Z,29.77
2017-05-08T11:04:52.892Z,30.35
2017-05-08T11:05:52.590Z,29.68
2017-05-08T11:06:52.910Z,29.97
2017-05-08T11:07:52.917Z,29.97
2017-05-08T11:08:52.927Z,30.07
2017-05-08T11:09:52.930Z,30.07
2017-05-08T11:10:53.037Z,29.79
2017-05-08T11:11:52.945Z,29.77
2017-05-08T11:12:52.641Z,30.37
2017-05-08T11:13:52.648Z,30.26
2017-05-08T11:14:52.968Z,30.27
2017-05-08T11:15:52.974Z,29.97
2017-05-08T11:16:52.981Z,29.77
2017-05-08T11:17:53.002Z,29.6
2017-05-08T11:18:53.001Z,30.08
2017-05-08T11:19:53.010Z,30.26
2017-05-08T11:20:53.010Z,30.35
2017-05-08T11:21:53.016Z,30.07
2017-05-08T11:22:53.028Z,29.76
2017-05-08T11:23:53.032Z,30.05
2017-05-08T11:24:53.089Z,29.95
2017-05-08T11:25:53.048Z,29.95
2017-05-08T11:26:52.743Z,29.95
2017-05-08T11:27:53.362Z,29.94
2017-05-08T11:28:53.120Z,30.15
2017-05-08T11:29:53.073Z,30.05
2017-05-08T11:30:52.776Z,30.15
2017-05-08T11:31:53.094Z,30.04
2017-05-08T11:32:53.110Z,29.85
2017-05-08T11:33:53.103Z,29.94
2017-05-08T11:34:53.110Z,29.94
2017-05-08T11:35:53.198Z,30.04
2017-05-08T11:36:52.813Z,30.23
2017-05-08T11:37:53.132Z,29.66
2017-05-08T11:38:53.183Z,29.47
2017-05-08T11:39:53.147Z,29.47
2017-05-08T11:40:53.204Z,29.47
2017-05-08T11:41:53.163Z,29.66
2017-05-08T11:42:53.168Z,29.94
2017-05-08T11:43:52.866Z,29.37
2017-05-08T11:44:53.184Z,29.95
2017-05-08T11:45:52.929Z,29.27
2017-05-08T11:46:53.197Z,29
2017-05-08T11:47:52.945Z,29.19
2017-05-08T11:48:53.261Z,29.19
2017-05-08T11:49:53.219Z,28.9
2017-05-08T11:50:53.227Z,28.9
2017-05-08T11:51:53.285Z,29.1
2017-05-08T11:52:53.243Z,29
2017-05-08T11:53:53.250Z,28.8
2017-05-08T11:54:53.264Z,28.9
2017-05-08T11:55:53.265Z,29.1
2017-05-08T11:56:53.273Z,29
2017-05-08T11:57:53.019Z,29.1
2017-05-08T11:58:53.343Z,29.1
2017-05-08T11:59:53.295Z,29
2017-05-08T12:00:53.354Z,29
2017-05-08T12:01:53.311Z,28.8
2017-05-08T12:02:53.316Z,28.7
2017-05-08T12:03:53.377Z,28.72
2017-05-08T12:04:53.335Z,28.7
2017-05-08T12:05:53.342Z,28.7
2017-05-08T12:06:53.347Z,28.53
2017-05-08T12:07:53.352Z,28.41
2017-05-08T12:08:53.411Z,28.04
2017-05-08T12:09:53.058Z,28.23
2017-05-08T12:10:53.375Z,28.04
2017-05-08T12:11:53.381Z,28.14
2017-05-08T12:12:53.389Z,28.14
2017-05-08T12:13:53.399Z,28.14
2017-05-08T12:14:53.097Z,28.23
2017-05-08T12:15:53.413Z,28.43
2017-05-08T12:16:53.421Z,28.43
2017-05-08T12:17:53.432Z,28.33
2017-05-08T12:18:53.436Z,28.34
2017-05-08T12:19:53.447Z,28.44
2017-05-08T12:20:53.458Z,28.23
2017-05-08T12:21:53.458Z,28.43
2017-05-08T12:22:53.468Z,28.33
2017-05-08T12:23:53.474Z,28.14
2017-05-08T12:24:53.486Z,28.43
2017-05-08T12:25:53.492Z,28.23
2017-05-08T12:26:53.498Z,28.34
2017-05-08T12:27:53.502Z,28.25
2017-05-08T12:28:53.511Z,28.23
2017-05-08T12:29:53.570Z,28.33
2017-05-08T12:30:53.530Z,28.33
2017-05-08T12:31:53.534Z,28.23
2017-05-08T12:32:53.541Z,28.34
2017-05-08T12:33:53.554Z,28.25
2017-05-08T12:34:53.557Z,28.15
2017-05-08T12:35:53.567Z,27.76
2017-05-08T12:36:53.572Z,27.76
2017-05-08T12:37:53.580Z,27.96
2017-05-08T12:38:53.593Z,27.96
2017-05-08T12:39:53.335Z,27.96
2017-05-08T12:40:53.605Z,27.47
2017-05-08T12:41:53.304Z,27.86
2017-05-08T12:42:53.311Z,28.15
2017-05-08T12:43:53.316Z,28.15
2017-05-08T12:44:53.324Z,28.15
2017-05-08T12:45:53.335Z,28.34
2017-05-08T12:46:53.343Z,28.23
2017-05-08T12:47:53.709Z,28.43
2017-05-08T12:48:53.719Z,28.33
2017-05-08T12:49:53.363Z,28.43
2017-05-08T12:50:53.682Z,27.94
2017-05-08T12:51:53.690Z,28.04
2017-05-08T12:52:53.702Z,28.63
2017-05-08T12:53:53.717Z,28.63
2017-05-08T12:54:53.404Z,28.63
2017-05-08T12:55:53.723Z,28.63
2017-05-08T12:56:53.727Z,28.63